地図

経路データ

SID SEASON NUMBER BASIN SUBBASIN NAME ISO_TIME NATURE LAT LON WMO_WIND WMO_PRES WMO_AGENCY TRACK_TYPE DIST2LAND LANDFALL IFLAG USA_AGENCY USA_ATCF_ID USA_LAT USA_LON USA_RECORD USA_STATUS USA_WIND USA_PRES USA_SSHS USA_R34_NE USA_R34_SE USA_R34_SW USA_R34_NW USA_R50_NE USA_R50_SE USA_R50_SW USA_R50_NW USA_R64_NE USA_R64_SE USA_R64_SW USA_R64_NW USA_POCI USA_ROCI USA_RMW USA_EYE TOKYO_LAT TOKYO_LON TOKYO_GRADE TOKYO_WIND TOKYO_PRES TOKYO_R50_DIR TOKYO_R50_LONG TOKYO_R50_SHORT TOKYO_R30_DIR TOKYO_R30_LONG TOKYO_R30_SHORT TOKYO_LAND CMA_LAT CMA_LON CMA_CAT CMA_WIND CMA_PRES HKO_LAT HKO_LON HKO_CAT HKO_WIND HKO_PRES NEWDELHI_LAT NEWDELHI_LON NEWDELHI_GRADE NEWDELHI_WIND NEWDELHI_PRES NEWDELHI_CI NEWDELHI_DP NEWDELHI_POCI REUNION_LAT REUNION_LON REUNION_TYPE REUNION_WIND REUNION_PRES REUNION_TNUM REUNION_CI REUNION_RMW REUNION_R34_NE REUNION_R34_SE REUNION_R34_SW REUNION_R34_NW REUNION_R50_NE REUNION_R50_SE REUNION_R50_SW REUNION_R50_NW REUNION_R64_NE REUNION_R64_SE REUNION_R64_SW REUNION_R64_NW BOM_LAT BOM_LON BOM_TYPE BOM_WIND BOM_PRES BOM_TNUM BOM_CI BOM_RMW BOM_R34_NE BOM_R34_SE BOM_R34_SW BOM_R34_NW BOM_R50_NE BOM_R50_SE BOM_R50_SW BOM_R50_NW BOM_R64_NE BOM_R64_SE BOM_R64_SW BOM_R64_NW BOM_ROCI BOM_POCI BOM_EYE BOM_POS_METHOD BOM_PRES_METHOD NADI_LAT NADI_LON NADI_CAT NADI_WIND NADI_PRES WELLINGTON_LAT WELLINGTON_LON WELLINGTON_WIND WELLINGTON_PRES DS824_LAT DS824_LON DS824_STAGE DS824_WIND DS824_PRES TD9636_LAT TD9636_LON TD9636_STAGE TD9636_WIND TD9636_PRES TD9635_LAT TD9635_LON TD9635_WIND TD9635_PRES TD9635_ROCI NEUMANN_LAT NEUMANN_LON NEUMANN_CLASS NEUMANN_WIND NEUMANN_PRES MLC_LAT MLC_LON MLC_CLASS MLC_WIND MLC_PRES USA_GUST BOM_GUST BOM_GUST_PER REUNION_GUST REUNION_GUST_PER USA_SEAHGT USA_SEARAD_NE USA_SEARAD_SE USA_SEARAD_SW USA_SEARAD_NW STORM_SPEED STORM_DIR
2008035S14101 2008 8 SI WA NOT_NAMED 2008-02-03 12:00:00 NR -14.4000 100.500 main 994 994 O_____________ jtwc_sh SH172008 -14.4000 100.500 DB 15 1010 -3 3 0
2008035S14101 2008 8 SI WA NOT_NAMED 2008-02-03 15:00:00 NR -14.5550 100.495 main 1013 1013 P_____________ SH172008 -14.5550 100.495 DB 15 1010 -3 3 0
2008035S14101 2008 8 SI WA NOT_NAMED 2008-02-03 18:00:00 NR -14.7000 100.500 main 1022 1022 O_____________ jtwc_sh SH172008 -14.7000 100.500 DB 15 1010 -3 3 172
2008035S14101 2008 8 SI WA NOT_NAMED 2008-02-03 21:00:00 NR -14.8350 100.528 main 1032 1032 P_____________ SH172008 -14.8350 100.528 DB 15 1010 -3 3 163
2008035S14101 2008 8 SI WA NOT_NAMED 2008-02-04 00:00:00 NR -15.0000 100.600 main 1046 1046 O_____________ jtwc_sh SH172008 -15.0000 100.600 DB 15 1010 -3 5 152
2008035S14101 2008 8 SI WA NOT_NAMED 2008-02-04 03:00:00 NR -15.2425 100.750 main 1061 1061 P_____________ SH172008 -15.2425 100.750 DB 17 1008 -3 6 150
2008035S14101 2008 8 SI WA NOT_NAMED 2008-02-04 06:00:00 NR -15.5000 100.900 main 1081 1081 O_____________ jtwc_sh SH172008 -15.5000 100.900 DB 20 1007 -3 1008 150 20 5 155
2008035S14101 2008 8 SI WA NOT_NAMED 2008-02-04 09:00:00 NR -15.7150 100.980 main 1096 1096 P_____________ SH172008 -15.7150 100.980 DB 20 1007 -3 1008 150 20 4 167
2008035S14101 2008 8 SI WA NOT_NAMED 2008-02-04 12:00:00 NR -15.9000 101.000 main 1117 1117 O_____________ jtwc_sh SH172008 -15.9000 101.000 DB 20 1007 -3 1008 150 20 4 0
2008035S14101 2008 8 SI WA NOT_NAMED 2008-02-04 15:00:00 NR -16.0950 100.958 main 1137 1137 P_____________ SH172008 -16.0950 100.958 DB 22 1005 -3 1006 160 25 3 197
2008035S14101 2008 8 SI WA NOT_NAMED 2008-02-04 18:00:00 TS -16.2000 100.900 main 1152 1141 O_____________ jtwc_sh SH172008 -16.2000 100.900 TD 25 1004 -1 1005 170 30 1 262
2008035S14101 2008 8 SI WA NOT_NAMED 2008-02-04 21:00:00 TS -16.1075 100.870 main 1141 1131 P_____________ SH172008 -16.1075 100.870 TD 25 1004 -1 1005 170 30 2 8
2008035S14101 2008 8 SI WA NOT_NAMED 2008-02-05 00:00:00 TS -16.0000 100.900 main 1131 1127 O_____________ jtwc_sh SH172008 -16.0000 100.900 TD 25 1004 -1 1005 170 30 1 87
2008035S14101 2008 8 SI WA NOT_NAMED 2008-02-05 03:00:00 TS -16.1000 101.012 main 1137 1132 P_____________ SH172008 -16.1000 101.012 TD 27 1002 -1 1004 185 32 4 125
2008035S14101 2008 8 SI WA NOT_NAMED 2008-02-05 06:00:00 TS -16.2000 101.200 main 1136 1115 O_____________ jtwc_sh SH172008 -16.2000 101.200 TD 30 1000 -1 1004 200 35 4 93
2008035S14101 2008 8 SI WA NOT_NAMED 2008-02-05 09:00:00 TS -16.1225 101.435 main 1115 1090 P_____________ SH172008 -16.1225 101.435 TD 30 1000 -1 1004 200 32 5 67
2008035S14101 2008 8 SI WA NOT_NAMED 2008-02-05 12:00:00 TS -16.0000 101.700 main 1090 1080 O_____________ jtwc_sh SH172008 -16.0000 101.700 TD 30 1000 -1 1004 200 30 5 71
2008035S14101 2008 8 SI WA NOT_NAMED 2008-02-05 15:00:00 TS -15.9499 101.942 main 1070 1056 P_____________ SH172008 -15.9499 101.942 TD 30 1000 -1 1004 200 30 5 78
2008035S14101 2008 8 SI WA NOT_NAMED 2008-02-05 18:00:00 TS -15.9000 102.200 main 1056 1032 O_____________ jtwc_sh SH172008 -15.9000 102.200 TD 30 1000 -1 1004 200 30 5 73
2008035S14101 2008 8 SI WA NOT_NAMED 2008-02-05 21:00:00 TS -15.7924 102.470 main 1032 1008 P_____________ SH172008 -15.7924 102.470 TD 30 1000 -1 6 71
2008035S14101 2008 8 SI WA NOT_NAMED 2008-02-06 00:00:00 TS -15.7000 102.800 main 1008 992 O_____________ jtwc_sh SH172008 -15.7000 102.800 TD 30 1000 -1 8 81
2008035S14101 2008 8 SI WA NOT_NAMED 2008-02-06 03:00:00 TS -15.6702 103.257 main 988 974 P_____________ SH172008 -15.6702 103.257 TD 30 1000 -1 9 90
2008035S14101 2008 8 SI WA NOT_NAMED 2008-02-06 06:00:00 TS -15.7000 103.700 main 974 968 O_____________ jtwc_sh SH172008 -15.7000 103.700 TD 30 1000 -1 1004 225 25 7 100
2008035S14101 2008 8 SI WA NOT_NAMED 2008-02-06 09:00:00 TS -15.7923 103.980 main 976 973 P_____________ SH172008 -15.7923 103.980 TD 30 1000 -1 1004 225 25 5 113
2008035S14101 2008 8 SI WA NOT_NAMED 2008-02-06 12:00:00 TS -15.9000 104.200 main 981 976 O_____________ jtwc_sh SH172008 -15.9000 104.200 TD 30 1000 -1 1004 225 25 5 110
2008035S14101 2008 8 SI WA NOT_NAMED 2008-02-06 15:00:00 TS -15.9575 104.458 main 985 980 P_____________ SH172008 -15.9575 104.458 TD 30 1000 -1 1004 225 25 5 102
2008035S14101 2008 8 SI WA NOT_NAMED 2008-02-06 18:00:00 TS -16.0000 104.700 main 980 976 O_____________ jtwc_sh SH172008 -16.0000 104.700 TD 30 1000 -1 1004 225 25 4 101
2008035S14101 2008 8 SI WA NOT_NAMED 2008-02-06 21:00:00 TS -16.0425 104.915 main 976 976 P_____________ SH172008 -16.0425 104.915 TD 32 998 -1 1004 225 25 4 105
2008035S14101 2008 8 SI WA NOT_NAMED 2008-02-07 00:00:00 TS -16.1000 105.100 main 984 982 O_____________ jtwc_sh SH172008 -16.1000 105.100 TS 35 996 0 1004 225 25 3 115
2008035S14101 2008 8 SI WA NOT_NAMED 2008-02-07 03:00:00 TS -16.1849 105.235 main 992 989 P_____________ SH172008 -16.1849 105.235 TS 35 996 0 1004 225 25 4 125
2008035S14101 2008 8 SI WA NOT_NAMED 2008-02-07 06:00:00 TS -16.3000 105.400 main 997 994 O_____________ jtwc_sh SH172008 -16.3000 105.400 TS 35 996 0 1004 225 25 5 121
2008035S14101 2008 8 SI WA NOT_NAMED 2008-02-07 09:00:00 TS -16.4426 105.685 main 1000 1000 P_____________ SH172008 -16.4426 105.685 TS 35 996 0 1004 225 25 7 118
2008035S14101 2008 8 SI WA NOT_NAMED 2008-02-07 12:00:00 TS -16.6000 106.000 main 1015 995 O_____________ jtwc_sh SH172008 -16.6000 106.000 TS 35 996 0 1004 225 25 6 119
2008035S14101 2008 8 SI WA NOT_NAMED 2008-02-07 15:00:00 TS -16.7500 106.265 main 995 964 P_____________ SH172008 -16.7500 106.265 TS 35 996 0 1004 225 37 6 122
2008035S14101 2008 8 SI WA NOT_NAMED 2008-02-07 18:00:00 TS -16.9000 106.500 main 964 934 O_____________ jtwc_sh SH172008 -16.9000 106.500 TS 35 996 0 1004 225 50 5 127
2008035S14101 2008 8 SI WA NOT_NAMED 2008-02-07 21:00:00 TS -17.0650 106.708 main 934 910 P_____________ SH172008 -17.0650 106.708 TS 35 996 0 5 128
2008035S14101 2008 8 SI WA NOT_NAMED 2008-02-08 00:00:00 TS -17.2000 106.900 main 910 886 O_____________ jtwc_sh SH172008 -17.2000 106.900 TS 35 996 0 4 118
2008035S14101 2008 8 SI WA NOT_NAMED 2008-02-08 03:00:00 TS -17.2725 107.108 main 886 869 P_____________ SH172008 -17.2725 107.108 TS 35 996 0 4 105
2008035S14101 2008 8 SI WA NOT_NAMED 2008-02-08 06:00:00 TS -17.3000 107.300 main 869 861 O_____________ jtwc_sh SH172008 -17.3000 107.300 TS 35 996 0 1004 225 50 3 96
2008035S14101 2008 8 SI WA NOT_NAMED 2008-02-08 09:00:00 TS -17.3075 107.458 main 853 844 P_____________ SH172008 -17.3075 107.458 TS 37 994 0 1004 225 50 3 90
2008035S14101 2008 8 SI WA NOT_NAMED 2008-02-08 12:00:00 TS -17.3000 107.600 main 844 828 O_____________ jtwc_sh SH172008 -17.3000 107.600 TS 40 993 0 50 50 50 50 1004 225 50 3 89
2008035S14101 2008 8 SI WA NOT_NAMED 2008-02-08 15:00:00 TS -17.3000 107.765 main 828 820 P_____________ SH172008 -17.3000 107.765 TS 40 993 0 57 50 50 60 1004 225 50 3 90
2008035S14101 2008 8 SI WA NOT_NAMED 2008-02-08 18:00:00 TS -17.3000 107.900 main 820 812 O_____________ jtwc_sh SH172008 -17.3000 107.900 TS 40 993 0 65 50 50 70 1004 225 50 2 97
2008035S14101 2008 8 SI WA NOT_NAMED 2008-02-08 21:00:00 TS -17.3225 107.973 main 812 812 P_____________ SH172008 -17.3225 107.973 TS 37 994 0 65 50 50 70 1004 205 45 1 90
2008035S14101 2008 8 SI WA NOT_NAMED 2008-02-09 00:00:00 TS -17.3000 108.000 main 812 812 O_____________ jtwc_sh SH172008 -17.3000 108.000 TS 35 996 0 65 50 50 70 1004 185 40 1 3
2008035S14101 2008 8 SI WA NOT_NAMED 2008-02-09 03:00:00 TS -17.1800 107.992 main 819 819 P_____________ SH172008 -17.1800 107.992 TS 35 996 0 65 50 50 70 1003 165 40 3 0
2008035S14101 2008 8 SI WA NOT_NAMED 2008-02-09 06:00:00 TS -17.0000 108.000 main 834 833 O_____________ jtwc_sh SH172008 -17.0000 108.000 TS 35 996 0 65 50 50 70 1002 145 40 4 13
2008035S14101 2008 8 SI WA NOT_NAMED 2008-02-09 09:00:00 TS -16.8075 108.078 main 841 841 P_____________ SH172008 -16.8075 108.078 TS 35 996 0 65 50 50 70 1002 145 40 4 25
2008035S14101 2008 8 SI WA NOT_NAMED 2008-02-09 12:00:00 TS -16.6000 108.200 main 849 849 O_____________ jtwc_sh SH172008 -16.6000 108.200 TS 35 996 0 65 50 50 70 1002 145 40 5 30
2008035S14101 2008 8 SI WA NOT_NAMED 2008-02-09 15:00:00 TS -16.4074 108.320 main 858 850 P_____________ SH172008 -16.4074 108.320 TS 32 998 -1 1001 147 45 5 36
2008035S14101 2008 8 SI WA NOT_NAMED 2008-02-09 18:00:00 TS -16.2000 108.500 main 860 853 O_____________ jtwc_sh SH172008 -16.2000 108.500 TD 30 1000 -1 1001 150 50 6 45
2008035S14101 2008 8 SI WA NOT_NAMED 2008-02-09 21:00:00 TS -15.9725 108.770 main 856 856 P_____________ SH172008 -15.9725 108.770 TD 30 1000 -1 8 49
2008035S14101 2008 8 SI WA NOT_NAMED 2008-02-10 00:00:00 TS -15.7000 109.100 main 857 818 O_____________ jtwc_sh SH172008 -15.7000 109.100 TD 30 1000 -1 9 45
2008035S14101 2008 8 SI WA NOT_NAMED 2008-02-10 03:00:00 TS -15.3424 109.428 main 807 765 P_____________ SH172008 -15.3424 109.428 TD 30 1000 -1 10 44
2008035S14101 2008 8 SI WA NOT_NAMED 2008-02-10 06:00:00 TS -15.0000 109.800 main 765 735 O_____________ jtwc_sh SH172008 -15.0000 109.800 TD 30 1000 -1 9 53
2008035S14101 2008 8 SI WA NOT_NAMED 2008-02-10 09:00:00 TS -14.7773 110.212 main 735 702 P_____________ SH172008 -14.7773 110.212 TD 30 1000 -1 10 65
2008035S14101 2008 8 SI WA NOT_NAMED 2008-02-10 12:00:00 TS -14.6000 110.700 main 702 674 O_____________ jtwc_sh SH172008 -14.6000 110.700 TD 30 1000 -1 1001 150 40 11 69
2008035S14101 2008 8 SI WA NOT_NAMED 2008-02-10 15:00:00 TS -14.3924 111.263 main 673 649 P_____________ SH172008 -14.3924 111.263 TD 27 1002 -1 12 71
2008035S14101 2008 8 SI WA NOT_NAMED 2008-02-10 18:00:00 TS -14.2000 111.900 main 649 621 O_____________ jtwc_sh SH172008 -14.2000 111.900 TD 25 1004 -1 13 75
2008035S14101 2008 8 SI WA NOT_NAMED 2008-02-10 21:00:00 TS -14.0404 112.588 main 618 588 P_____________ SH172008 -14.0404 112.588 TD 22 1005 -1 14 78
2008035S14101 2008 8 SI WA NOT_NAMED 2008-02-11 00:00:00 NR -13.9000 113.300 main 588 O_____________ jtwc_sh SH172008 -13.9000 113.300 DB 20 1007 -3 14 79

IBTrACS Databaseについて

本データベースは、米国NOAAが公開する1842年以降の世界の熱帯低気圧のベストトラックデータアーカイブInternational Best Track Archive for Climate Stewardship (IBTrACS)を、ウェブで閲覧しやすい形式に変換したものです。

最終更新日:2021-10-21